イースター島 の空港の天気 - METARとTAF

マタベリ国際空港 ( SCIP / IPC ) - チリ イースター島
飛行場実況気象(Metar)
観測時間04/21 09:00 EAT (04/21 15:00 UTC)
風向・風速静穏 0m/s
視程10km以上
天気現象
少しの雲 雲底高度 610m
気温21℃
湿度100%
気圧1025hPa
METARSCIP 211500Z 00000KT 9999 FEW020 21/21 Q1025 NOSIG
過去の天気等 Google飛行場航空写真 Wunderground天気予報

過去48時間のMETAR

飛行場予報(TAF)
発表時間: 4/21 04:50 EAT (4/21 10:50 UTC)
予報対象時間: 21日6時 EAT ~ 22日6時 EAT
風向・風速東 3m/s
視程10km以上
全天の4割程度の雲 雲底高度 610m
21日13時 EAT ~ 21日15時 EAT に徐々に
風向・風速南東 5m/s
21日19時 EAT ~ 22日6時 EAT に一時的に
風向・風速不定 1m/s
視程7000m
天気現象弱いしゅう雨
全天の4割程度の雲 雲底高度 610m
全天の4割程度の雲 雲底高度 1220m
TAF SCIP 211050Z 2112/2212 09005KT 9999 SCT020 TN18/2110Z TX27/2120Z
BECMG 2119/2121 14010KT
TEMPO 2201/2212 VRB02KT 7000 -SHRA SCT020 SCT040